createdAt,value
2018-06-04T00:00:46.350Z,91.81
2018-06-04T00:01:46.363Z,91.72
2018-06-04T00:02:46.329Z,91.81
2018-06-04T00:03:46.350Z,92
2018-06-04T00:04:46.353Z,91.72
2018-06-04T00:05:46.342Z,91.24
2018-06-04T00:06:46.061Z,91.33
2018-06-04T00:07:46.313Z,91.24
2018-06-04T00:08:46.318Z,91.14
2018-06-04T00:09:46.324Z,91.24
2018-06-04T00:10:46.316Z,91.52
2018-06-04T00:11:46.291Z,91.52
2018-06-04T00:12:46.313Z,91.52
2018-06-04T00:13:46.032Z,91.62
2018-06-04T00:14:46.044Z,91.52
2018-06-04T00:15:46.282Z,91.24
2018-06-04T00:16:46.294Z,91.14
2018-06-04T00:17:46.272Z,91.14
2018-06-04T00:18:46.284Z,91.33
2018-06-04T00:19:46.270Z,91.42
2018-06-04T00:20:46.263Z,91.33
2018-06-04T00:21:46.262Z,91.42
2018-06-04T00:22:46.274Z,90.95
2018-06-04T00:23:46.246Z,90.95
2018-06-04T00:24:46.263Z,90.95
2018-06-04T00:25:46.259Z,91.14
2018-06-04T00:26:46.254Z,91.14
2018-06-04T00:27:46.230Z,90.56
2018-06-04T00:28:46.249Z,91.05
2018-06-04T00:29:46.234Z,90.66
2018-06-04T00:30:46.242Z,91.14
2018-06-04T00:31:46.216Z,91.14
2018-06-04T00:32:46.239Z,90.47
2018-06-04T00:33:46.209Z,90.85
2018-06-04T00:34:46.225Z,90.66
2018-06-04T00:35:46.200Z,90.85
2018-06-04T00:36:46.206Z,90.75
2018-06-04T00:37:46.195Z,90.75
2018-06-04T00:38:46.208Z,90.95
2018-06-04T00:39:46.212Z,90.75
2018-06-04T00:40:46.188Z,90.37
2018-06-04T00:41:46.177Z,90.66
2018-06-04T00:42:46.175Z,90.56
2018-06-04T00:43:46.194Z,90.47
2018-06-04T00:44:46.170Z,90.47
2018-06-04T00:45:46.183Z,90.18
2018-06-04T00:46:46.159Z,90.28
2018-06-04T00:47:46.181Z,90.37
2018-06-04T00:48:46.158Z,90.47
2018-06-04T00:49:46.148Z,90.61
2018-06-04T00:50:46.163Z,90.61
2018-06-04T00:51:46.140Z,90.42
2018-06-04T00:52:46.144Z,90.61
2018-06-04T00:53:46.131Z,90.61
2018-06-04T00:54:46.147Z,90.8
2018-06-04T00:55:46.146Z,89.94
2018-06-04T00:56:46.131Z,89.94
2018-06-04T00:57:45.864Z,90.13
2018-06-04T00:58:45.862Z,89.65
2018-06-04T00:59:46.128Z,89.75
2018-06-04T01:00:46.111Z,89.84
2018-06-04T01:01:46.126Z,89.94
2018-06-04T01:02:46.099Z,90.03
2018-06-04T01:03:46.113Z,89.98
2018-06-04T01:04:46.092Z,90.08
2018-06-04T01:05:45.853Z,90.08
2018-06-04T01:06:46.084Z,90.17
2018-06-04T01:07:46.103Z,89.98
2018-06-04T01:08:46.097Z,90.27
2018-06-04T01:09:46.101Z,89.69
2018-06-04T01:10:46.078Z,89.98
2018-06-04T01:11:45.817Z,89.98
2018-06-04T01:12:46.077Z,90.08
2018-06-04T01:13:46.079Z,90.08
2018-06-04T01:14:45.803Z,89.98
2018-06-04T01:15:46.077Z,90.27
2018-06-04T01:16:46.080Z,90.27
2018-06-04T01:17:46.065Z,89.98
2018-06-04T01:18:46.079Z,89.98
2018-06-04T01:19:46.060Z,89.98
2018-06-04T01:20:46.055Z,89.79
2018-06-04T01:21:46.060Z,90.03
2018-06-04T01:22:46.035Z,90.03
2018-06-04T01:23:45.790Z,90.03
2018-06-04T01:24:46.045Z,90.03
2018-06-04T01:25:46.049Z,89.74
2018-06-04T01:26:45.775Z,90.03
2018-06-04T01:27:46.014Z,90.31
2018-06-04T01:28:46.024Z,91.28
2018-06-04T01:29:46.028Z,90.12
2018-06-04T01:30:46.024Z,90.31
2018-06-04T01:31:46.000Z,90.12
2018-06-04T01:32:46.011Z,90.89
2018-06-04T01:33:45.992Z,91.13
2018-06-04T01:34:46.011Z,90.99
2018-06-04T01:35:45.998Z,91.13
2018-06-04T01:36:46.004Z,91.03
2018-06-04T01:37:45.980Z,91.03
2018-06-04T01:38:45.999Z,90.84
2018-06-04T01:39:45.974Z,90.75
2018-06-04T01:40:45.985Z,90.84
2018-06-04T01:41:46.015Z,91.03
2018-06-04T01:42:45.966Z,90.75
2018-06-04T01:43:45.962Z,90.84
2018-06-04T01:44:45.972Z,90.94
2018-06-04T01:45:45.981Z,91.32
2018-06-04T01:46:45.977Z,91.32
2018-06-04T01:47:45.949Z,91.13
2018-06-04T01:48:45.960Z,90.94
2018-06-04T01:49:45.944Z,90.84
2018-06-04T01:50:45.959Z,91.61
2018-06-04T01:51:45.946Z,91.32
2018-06-04T01:52:45.963Z,91.32
2018-06-04T01:53:45.932Z,91.52
2018-06-04T01:54:45.956Z,91.52
2018-06-04T01:55:45.927Z,91.42
2018-06-04T01:56:45.928Z,91.22
2018-06-04T01:57:45.929Z,91.13
2018-06-04T01:58:45.679Z,91.42
2018-06-04T01:59:45.934Z,91.42
2018-06-04T02:00:45.926Z,91.9
2018-06-04T02:01:45.655Z,91.99
2018-06-04T02:02:45.908Z,91.9
2018-06-04T02:03:45.924Z,91.52
2018-06-04T02:04:45.904Z,91.71
2018-06-04T02:05:45.896Z,91.8
2018-06-04T02:06:45.914Z,91.8
2018-06-04T02:07:45.889Z,91.61
2018-06-04T02:08:45.905Z,92.09
2018-06-04T02:09:45.885Z,91.61
2018-06-04T02:10:45.900Z,92.05
2018-06-04T02:11:45.884Z,91.95
2018-06-04T02:12:45.882Z,92.24
2018-06-04T02:13:45.875Z,92.14
2018-06-04T02:14:45.890Z,92.24
2018-06-04T02:15:45.886Z,91.95
2018-06-04T02:16:45.868Z,91.85
2018-06-04T02:17:45.861Z,91.56
2018-06-04T02:18:45.861Z,91.66
2018-06-04T02:19:45.872Z,91.47
2018-06-04T02:20:45.855Z,91.42
2018-06-04T02:21:45.871Z,91.37
2018-06-04T02:22:45.592Z,91.47
2018-06-04T02:23:45.867Z,91.52
2018-06-04T02:24:45.852Z,91.61
2018-06-04T02:25:45.856Z,92.29
2018-06-04T02:26:45.830Z,91.81
2018-06-04T02:27:45.846Z,92.19
2018-06-04T02:28:45.838Z,91.52
2018-06-04T02:29:45.840Z,92
2018-06-04T02:30:45.819Z,91.81
2018-06-04T02:31:45.837Z,92.29
2018-06-04T02:32:45.565Z,92.19
2018-06-04T02:33:45.818Z,91.81
2018-06-04T02:34:45.553Z,92.19
2018-06-04T02:35:45.824Z,92.19
2018-06-04T02:36:45.553Z,92
2018-06-04T02:37:45.816Z,91.81
2018-06-04T02:38:45.793Z,92.05
2018-06-04T02:39:45.552Z,92.1
2018-06-04T02:40:45.533Z,92.19
2018-06-04T02:41:45.803Z,91.38
2018-06-04T02:42:45.782Z,91.33
2018-06-04T02:43:45.808Z,91.38
2018-06-04T02:44:45.524Z,91.57
2018-06-04T02:45:45.769Z,91.28
2018-06-04T02:46:45.836Z,91.52
2018-06-04T02:47:45.790Z,91.38
2018-06-04T02:48:45.765Z,91.38
2018-06-04T02:49:45.764Z,91.47
2018-06-04T02:50:45.755Z,91.38
2018-06-04T02:51:45.771Z,91.38
2018-06-04T02:52:45.757Z,91.57
2018-06-04T02:53:45.501Z,91.28
2018-06-04T02:54:45.737Z,91.19
2018-06-04T02:55:45.763Z,91.28
2018-06-04T02:56:45.737Z,91.57
2018-06-04T02:57:45.735Z,91.09
2018-06-04T02:58:45.747Z,91.66
2018-06-04T02:59:45.726Z,91.57
2018-06-04T03:00:45.721Z,91.47
2018-06-04T03:01:45.713Z,91.28
2018-06-04T03:02:45.737Z,91.38
2018-06-04T03:03:45.726Z,91.38
2018-06-04T03:04:45.718Z,91.28
2018-06-04T03:05:45.702Z,91.38
2018-06-04T03:06:45.695Z,91.19
2018-06-04T03:07:45.708Z,91.28
2018-06-04T03:08:45.441Z,91.47
2018-06-04T03:09:45.704Z,91.28
2018-06-04T03:10:45.678Z,91.09
2018-06-04T03:11:45.708Z,90.9
2018-06-04T03:12:45.679Z,90.99
2018-06-04T03:13:45.695Z,90.8
2018-06-04T03:14:45.674Z,91.28
2018-06-04T03:15:45.682Z,90.61
2018-06-04T03:16:45.672Z,91.09
2018-06-04T03:17:45.674Z,91.28
2018-06-04T03:18:45.650Z,91.47
2018-06-04T03:19:45.659Z,91.09
2018-06-04T03:20:45.658Z,90.9
2018-06-04T03:21:45.402Z,90.61
2018-06-04T03:22:45.635Z,90.9
2018-06-04T03:23:45.652Z,90.8
2018-06-04T03:24:45.387Z,90.61
2018-06-04T03:25:45.644Z,91.19
2018-06-04T03:26:45.622Z,90.94
2018-06-04T03:27:45.639Z,90.37
2018-06-04T03:28:45.613Z,90.66
2018-06-04T03:29:45.631Z,90.46
2018-06-04T03:30:45.608Z,90.66
2018-06-04T03:31:45.629Z,90.75
2018-06-04T03:32:45.622Z,90.66
2018-06-04T03:33:45.619Z,90.8
2018-06-04T03:34:45.343Z,90.37
2018-06-04T03:35:45.591Z,90.31
2018-06-04T03:36:45.344Z,90.46
2018-06-04T03:37:45.608Z,90.7
2018-06-04T03:38:45.602Z,90.41
2018-06-04T03:39:45.580Z,90.41
2018-06-04T03:40:45.593Z,90.6
2018-06-04T03:41:45.582Z,90.7
2018-06-04T03:42:45.588Z,90.65
2018-06-04T03:43:45.565Z,90.84
2018-06-04T03:44:45.581Z,90.84
2018-06-04T03:45:45.565Z,91.13
2018-06-04T03:46:45.578Z,91.08
2018-06-04T03:47:45.302Z,91.17
2018-06-04T03:48:45.308Z,90.98
2018-06-04T03:49:45.548Z,90.93
2018-06-04T03:50:45.289Z,90.93
2018-06-04T03:51:45.285Z,91.31
2018-06-04T03:52:45.538Z,91.41
2018-06-04T03:53:45.534Z,90.88
2018-06-04T03:54:45.528Z,91.36
2018-06-04T03:55:45.527Z,91.79
2018-06-04T03:56:45.530Z,91.5
2018-06-04T03:57:45.524Z,91.99
2018-06-04T03:58:45.523Z,91.74
2018-06-04T03:59:45.518Z,91.83
2018-06-04T04:00:45.522Z,91.74
2018-06-04T04:01:45.568Z,91.69
2018-06-04T04:02:45.516Z,91.78
2018-06-04T04:03:45.514Z,91.35
2018-06-04T04:04:45.515Z,91.35
2018-06-04T04:05:45.519Z,91.39
2018-06-04T04:06:45.517Z,91.11
2018-06-04T04:07:45.520Z,90.81
2018-06-04T04:08:45.512Z,90.77
2018-06-04T04:09:45.513Z,90.19
2018-06-04T04:10:45.512Z,90.23
2018-06-04T04:11:45.512Z,89.75
2018-06-04T04:12:45.515Z,88.92
2018-06-04T04:13:45.510Z,89.15
2018-06-04T04:14:45.511Z,89.25
2018-06-04T04:15:45.517Z,88.23
2018-06-04T04:16:45.263Z,88.53
2018-06-04T04:17:45.513Z,87.7
2018-06-04T04:18:45.264Z,87.21
2018-06-04T04:19:45.516Z,86.68
2018-06-04T04:20:45.519Z,86.48
2018-06-04T04:21:45.271Z,86.68
2018-06-04T04:22:45.549Z,85.36
2018-06-04T04:23:45.557Z,84.92
2018-06-04T04:24:45.540Z,84.92
2018-06-04T04:25:45.538Z,84.63
2018-06-04T04:26:45.288Z,84.67
2018-06-04T04:27:45.406Z,84.09
2018-06-04T04:28:45.601Z,83.84
2018-06-04T04:29:45.570Z,83.2
2018-06-04T04:30:45.556Z,83.49
2018-06-04T04:31:45.581Z,82.07
2018-06-04T04:32:45.566Z,82.37
2018-06-04T04:33:45.586Z,81.73
2018-06-04T04:34:45.571Z,81.14
2018-06-04T04:35:45.337Z,80.6
2018-06-04T04:36:45.579Z,80.5
2018-06-04T04:37:45.677Z,79.38
2018-06-04T04:38:45.581Z,79.12
2018-06-04T04:39:45.588Z,79.02
2018-06-04T04:40:45.599Z,78.38
2018-06-04T04:41:45.605Z,77.11
2018-06-04T04:42:45.607Z,76.18
2018-06-04T04:43:45.611Z,75.69
2018-06-04T04:44:45.616Z,74.85
2018-06-04T04:45:45.370Z,74.6
2018-06-04T04:46:45.747Z,73.13
2018-06-04T04:47:45.666Z,72.19
2018-06-04T04:48:45.698Z,71.22
2018-06-04T04:49:45.680Z,70.47
2018-06-04T04:50:45.668Z,69.1
2018-06-04T04:51:45.694Z,68.26
2018-06-04T04:52:58.423Z,67.58
2018-06-04T04:53:45.706Z,67.68
2018-06-04T04:54:45.694Z,67.22
2018-06-04T04:55:45.700Z,66.53
2018-06-04T04:56:45.721Z,66.73
2018-06-04T04:57:45.738Z,65.98
2018-06-04T04:58:45.740Z,65.88
2018-06-04T04:59:45.922Z,64.51
2018-06-04T05:00:45.754Z,63.93
2018-06-04T05:01:45.756Z,63.28
2018-06-04T05:02:45.788Z,62.98
2018-06-04T05:03:45.762Z,62.52
2018-06-04T05:04:45.786Z,61.96
2018-06-04T05:05:45.799Z,61.47
2018-06-04T05:06:45.790Z,60.21
2018-06-04T05:07:45.818Z,60.92
2018-06-04T05:08:45.564Z,59.35
2018-06-04T05:09:45.834Z,59.19
2018-06-04T05:10:45.572Z,58.69
2018-06-04T05:11:45.580Z,58.14
2018-06-04T05:12:45.855Z,57.25
2018-06-04T05:13:45.872Z,56.4
2018-06-04T05:14:45.879Z,56.3
2018-06-04T05:15:45.870Z,55.41
2018-06-04T05:16:45.895Z,55.02
2018-06-04T05:17:45.891Z,54.75
2018-06-04T05:18:45.957Z,54.07
2018-06-04T05:19:46.391Z,54.46
2018-06-04T05:20:45.970Z,53.28
2018-06-04T05:21:45.962Z,53.21
2018-06-04T05:22:45.969Z,53.21
2018-06-04T05:24:00.624Z,52.45
2018-06-04T05:24:45.960Z,52.55
2018-06-04T05:25:45.987Z,51.86
2018-06-04T05:26:46.000Z,51.37
2018-06-04T05:27:46.015Z,51.76
2018-06-04T05:28:45.999Z,51.57
2018-06-04T05:29:46.028Z,51.17
2018-06-04T05:30:46.050Z,51.4
2018-06-04T05:31:46.130Z,50.9
2018-06-04T05:32:46.061Z,50.42
2018-06-04T05:33:46.053Z,50.54
2018-06-04T05:34:46.084Z,49.75
2018-06-04T05:35:46.078Z,49.28
2018-06-04T05:36:46.102Z,48.99
2018-06-04T05:37:45.851Z,48.99
2018-06-04T05:38:46.129Z,48.49
2018-06-04T05:39:45.874Z,47.83
2018-06-04T05:40:45.878Z,47.73
2018-06-04T05:41:46.154Z,47.34
2018-06-04T05:42:46.171Z,47.75
2018-06-04T05:43:46.182Z,47.36
2018-06-04T05:44:46.178Z,46.47
2018-06-04T05:45:46.199Z,46.37
2018-06-04T05:46:46.199Z,46.1
2018-06-04T05:47:46.232Z,46
2018-06-04T05:48:46.219Z,45.81
2018-06-04T05:49:46.251Z,45.41
2018-06-04T05:50:45.990Z,45.51
2018-06-04T05:51:46.275Z,45.41
2018-06-04T05:52:46.289Z,45.43
2018-06-04T05:53:46.336Z,45.14
2018-06-04T05:54:46.292Z,44.65
2018-06-04T05:55:46.321Z,43.59
2018-06-04T05:56:46.318Z,43.68
2018-06-04T05:57:46.346Z,43.68
2018-06-04T05:58:46.358Z,43.98
2018-06-04T05:59:46.368Z,43.41
2018-06-04T06:00:46.374Z,43.21
2018-06-04T06:01:46.522Z,42.61
2018-06-04T06:03:46.402Z,42.14
2018-06-04T06:04:46.430Z,42.07
2018-06-04T06:05:46.452Z,41.77
2018-06-04T06:06:46.462Z,41.1
2018-06-04T06:07:46.481Z,41.52
2018-06-04T06:08:46.490Z,40.92
2018-06-04T06:09:46.504Z,39.75
2018-06-04T06:10:46.496Z,39.28
2018-06-04T06:13:46.539Z,38.21
2018-06-04T06:15:05.753Z,38.11
2018-06-04T06:15:46.581Z,38.4
2018-06-04T06:16:47.858Z,38.21
2018-06-04T06:18:46.626Z,37.4
2018-06-04T06:19:46.641Z,37.89
2018-06-04T06:20:46.653Z,38.07
2018-06-04T06:21:59.379Z,38.07
2018-06-04T06:22:46.680Z,37.76
2018-06-04T06:23:46.677Z,37.66
2018-06-04T06:24:46.706Z,37.96
2018-06-04T06:25:46.452Z,37.74
2018-06-04T06:26:46.717Z,37.84
2018-06-04T06:27:46.744Z,38.12
2018-06-04T06:28:46.757Z,38.31
2018-06-04T06:29:46.758Z,38.39
2018-06-04T06:30:46.840Z,38.29
2018-06-04T06:31:46.777Z,38.47
2018-06-04T06:32:46.809Z,39.06
2018-06-04T06:33:46.555Z,38.77
2018-06-04T06:34:46.836Z,38.77
2018-06-04T06:35:46.827Z,38.89
2018-06-04T06:36:46.866Z,38.59
2018-06-04T06:37:46.852Z,38.69
2018-06-04T06:38:46.886Z,38.1
2018-06-04T06:39:46.628Z,38.1
2018-06-04T06:40:46.654Z,38.1
2018-06-04T06:41:46.930Z,37.8
2018-06-04T06:42:46.944Z,37.8
2018-06-04T06:43:46.933Z,38
2018-06-04T06:44:46.949Z,38.1
2018-06-04T06:45:46.715Z,37.8
2018-06-04T06:46:47.039Z,37.6
2018-06-04T06:47:47.009Z,37.72
2018-06-04T06:48:47.007Z,37.13
2018-06-04T06:49:46.776Z,37.43
2018-06-04T06:50:47.056Z,37.32
2018-06-04T06:51:47.068Z,37.45
2018-06-04T06:52:47.085Z,37.24
2018-06-04T06:53:47.068Z,37.34
2018-06-04T06:54:47.120Z,37.36
2018-06-04T06:55:47.107Z,37.07
2018-06-04T06:56:47.140Z,37.08
2018-06-04T06:57:47.140Z,36.29
2018-06-04T06:58:46.907Z,35.7
2018-06-04T06:59:47.166Z,35.21
2018-06-04T07:00:47.176Z,34.81
2018-06-04T07:01:47.204Z,35.02
2018-06-04T07:02:47.234Z,34.83
2018-06-04T07:03:47.237Z,34.83
2018-06-04T07:04:47.257Z,34.23
2018-06-04T07:05:47.272Z,33.84
2018-06-04T07:06:47.261Z,33.94
2018-06-04T07:07:47.298Z,33.84
2018-06-04T07:08:47.294Z,34.13
2018-06-04T07:09:47.334Z,33.64
2018-06-04T07:10:47.074Z,33.84
2018-06-04T07:11:47.106Z,34.13
2018-06-04T07:12:47.107Z,34.03
2018-06-04T07:13:47.386Z,33.94
2018-06-04T07:14:47.386Z,33.14
2018-06-04T07:15:47.424Z,32.64
2018-06-04T07:16:47.416Z,32.55
2018-06-04T07:17:47.445Z,31.94
2018-06-04T07:18:47.469Z,32.62
2018-06-04T07:19:47.492Z,33.01
2018-06-04T07:20:47.476Z,32.81
2018-06-04T07:21:47.511Z,33.39
2018-06-04T07:22:47.512Z,33.47
2018-06-04T07:23:47.544Z,33.87
2018-06-04T07:24:47.558Z,34.15
2018-06-04T07:25:47.584Z,35.12
2018-06-04T07:26:47.785Z,35.41
2018-06-04T07:27:47.347Z,35.41
2018-06-04T07:28:47.601Z,34.92
2018-06-04T07:29:47.626Z,35.12
2018-06-04T07:30:47.637Z,35.52
2018-06-04T07:31:47.679Z,35.89
2018-06-04T07:32:47.681Z,36.19
2018-06-04T07:33:47.682Z,35.28
2018-06-04T07:34:47.801Z,36.36
2018-06-04T07:35:47.708Z,37.32
2018-06-04T07:36:47.751Z,37.79
2018-06-04T07:37:47.757Z,38.28
2018-06-04T07:38:47.780Z,38.66
2018-06-04T07:39:47.517Z,38.46
2018-06-04T07:40:47.547Z,38.85
2018-06-04T07:41:47.818Z,38.68
2018-06-04T07:42:47.830Z,38.6
2018-06-04T07:43:47.868Z,38.2
2018-06-04T07:44:47.848Z,38.22
2018-06-04T07:45:47.910Z,37.74
2018-06-04T07:46:47.874Z,37.45
2018-06-04T07:47:47.908Z,37.96
2018-06-04T07:48:47.665Z,37.19
2018-06-04T07:49:48.047Z,37.39
2018-06-04T07:50:47.942Z,37.19
2018-06-04T07:51:47.946Z,36.5
2018-06-04T07:52:47.992Z,37.19
2018-06-04T07:53:47.978Z,36.9
2018-06-04T07:54:48.033Z,36.9
2018-06-04T07:55:48.013Z,36.82
2018-06-04T07:56:48.039Z,36.71
2018-06-04T07:57:48.033Z,36.71
2018-06-04T07:58:48.066Z,35.53
2018-06-04T07:59:48.069Z,34.94
2018-06-04T08:00:48.253Z,34.74
2018-06-04T08:01:48.114Z,35.52
2018-06-04T08:02:48.148Z,36.66
2018-06-04T08:03:48.130Z,38.01
2018-06-04T08:04:48.145Z,37.79
2018-06-04T08:05:47.916Z,37.91
2018-06-04T08:06:48.188Z,37.41
2018-06-04T08:07:48.188Z,37.79
2018-06-04T08:08:48.252Z,38.17
2018-06-04T08:09:48.226Z,38.84
2018-06-04T08:10:48.246Z,39.03
2018-06-04T08:11:47.989Z,39.15
2018-06-04T08:12:48.274Z,38.36
2018-06-04T08:13:48.268Z,38.56
2018-06-04T08:14:48.310Z,38.56
2018-06-04T08:15:48.296Z,38.07
2018-06-04T08:16:48.081Z,37.97
2018-06-04T08:17:48.349Z,38.76
2018-06-04T08:18:48.365Z,38.85
2018-06-04T08:19:48.356Z,39.15
2018-06-04T08:20:48.371Z,38.85
2018-06-04T08:21:48.392Z,39.15
2018-06-04T08:22:48.422Z,38.78
2018-06-04T08:23:48.547Z,38.1
2018-06-04T08:24:48.420Z,38.01
2018-06-04T08:25:48.451Z,38.3
2018-06-04T08:26:48.457Z,38.12
2018-06-04T08:27:48.478Z,37.95
2018-06-04T08:28:48.471Z,37.85
2018-06-04T08:29:48.503Z,37.35
2018-06-04T08:30:48.248Z,36.29
2018-06-04T08:31:48.543Z,35.5
2018-06-04T08:32:48.527Z,36.57
2018-06-04T08:33:48.563Z,37.63
2018-06-04T08:34:48.606Z,37.71
2018-06-04T08:35:48.570Z,37.61
2018-06-04T08:36:48.606Z,37.81
2018-06-04T08:37:48.643Z,38.28
2018-06-04T08:38:48.634Z,38.48
2018-06-04T08:39:48.674Z,38.85
2018-06-04T08:40:48.380Z,38.76
2018-06-04T08:41:48.664Z,38.46
2018-06-04T08:42:48.686Z,38.56
2018-06-04T08:43:48.702Z,38.74
2018-06-04T08:44:48.682Z,39.13
2018-06-04T08:45:48.482Z,39.03
2018-06-04T08:46:48.723Z,39.13
2018-06-04T08:47:48.802Z,37.76
2018-06-04T08:48:48.744Z,37.55
2018-06-04T08:49:48.760Z,37.95
2018-06-04T08:50:48.787Z,38.32
2018-06-04T08:51:48.805Z,38.4
2018-06-04T08:52:48.814Z,38.8
2018-06-04T08:53:48.810Z,39.58
2018-06-04T08:54:48.811Z,39.76
2018-06-04T08:55:48.840Z,39.17
2018-06-04T08:56:48.857Z,40.03
2018-06-04T08:57:48.601Z,39.35
2018-06-04T08:58:48.615Z,40.11
2018-06-04T08:59:49.441Z,40.51
2018-06-04T09:00:48.891Z,41
2018-06-04T09:01:49.022Z,41.49
2018-06-04T09:02:48.961Z,41.49
2018-06-04T09:03:48.936Z,41.39
2018-06-04T09:04:48.927Z,41
2018-06-04T09:05:48.943Z,40.8
2018-06-04T09:06:49.148Z,41
2018-06-04T09:07:49.200Z,41.17
2018-06-04T09:08:48.996Z,40.68
2018-06-04T09:09:49.263Z,40.68
2018-06-04T09:10:48.988Z,41.19
2018-06-04T09:11:49.000Z,40.9
2018-06-04T09:12:49.025Z,40.78
2018-06-04T09:13:49.048Z,41.45
2018-06-04T09:14:49.057Z,42.6
2018-06-04T09:15:49.140Z,43.37
2018-06-04T09:16:49.103Z,43.23
2018-06-04T09:17:49.054Z,43.01
2018-06-04T09:18:49.084Z,43.79
2018-06-04T09:19:49.088Z,44.48
2018-06-04T09:20:49.132Z,44.84
2018-06-04T09:21:49.196Z,45.14
2018-06-04T09:22:49.123Z,45.12
2018-06-04T09:23:49.109Z,45.04
2018-06-04T09:24:49.138Z,46.09
2018-06-04T09:25:49.138Z,46.68
2018-06-04T09:26:49.131Z,47.24
2018-06-04T09:27:49.141Z,46.95
2018-06-04T09:28:48.921Z,47.83
2018-06-04T09:29:49.181Z,48.41
2018-06-04T09:30:49.197Z,47.53
2018-06-04T09:31:49.192Z,48.02
2018-06-04T09:32:49.191Z,48.12
2018-06-04T09:33:49.214Z,46.95
2018-06-04T09:34:49.207Z,46.46
2018-06-04T09:35:49.204Z,46.66
2018-06-04T09:36:49.258Z,46.36
2018-06-04T09:37:49.225Z,46.26
2018-06-04T09:38:49.236Z,46.46
2018-06-04T09:39:49.282Z,47.34
2018-06-04T09:40:49.266Z,47.24
2018-06-04T09:41:48.988Z,46.85
2018-06-04T09:42:49.245Z,47.17
2018-06-04T09:43:49.328Z,46.39
2018-06-04T09:44:49.277Z,46.78
2018-06-04T09:45:49.289Z,46.97
2018-06-04T09:46:49.297Z,46.68
2018-06-04T09:47:49.038Z,46.29
2018-06-04T09:48:49.304Z,46.31
2018-06-04T09:49:49.317Z,45.53
2018-06-04T09:50:49.388Z,46.21
2018-06-04T09:51:49.330Z,45.92
2018-06-04T09:52:49.350Z,45.65
2018-06-04T09:53:49.465Z,45.06
2018-06-04T09:54:49.332Z,44.96
2018-06-04T09:55:49.351Z,44.59
2018-06-04T09:56:49.359Z,43.81
2018-06-04T09:57:49.354Z,43.81
2018-06-04T09:58:49.100Z,43.91
2018-06-04T09:59:49.358Z,44.4
2018-06-04T10:00:49.422Z,44.57
2018-06-04T10:01:49.381Z,44.28
2018-06-04T10:02:49.421Z,45.43
2018-06-04T10:03:49.393Z,46.97
2018-06-04T10:04:49.517Z,47.05
2018-06-04T10:05:49.413Z,46.63
2018-06-04T10:06:49.437Z,46.73
2018-06-04T10:07:49.420Z,47.12
2018-06-04T10:08:49.451Z,48.29
2018-06-04T10:09:49.452Z,47.31
2018-06-04T10:10:49.474Z,47.41
2018-06-04T10:11:49.209Z,48.29
2018-06-04T10:12:49.468Z,48.39
2018-06-04T10:13:49.803Z,48.56
2018-06-04T10:14:49.515Z,48.83
2018-06-04T10:15:49.484Z,49.61
2018-06-04T10:16:49.514Z,49.71
2018-06-04T10:17:49.494Z,49.58
2018-06-04T10:18:49.255Z,49.88
2018-06-04T10:19:49.499Z,50.63
2018-06-04T10:20:49.274Z,51.09
2018-06-04T10:21:49.273Z,50.6
2018-06-04T10:22:49.553Z,50.53
2018-06-04T10:23:49.527Z,50.73
2018-06-04T10:24:49.549Z,50.63
2018-06-04T10:25:49.554Z,50.31
2018-06-04T10:26:49.307Z,50.21
2018-06-04T10:27:49.602Z,50.63
2018-06-04T10:28:49.572Z,50.53
2018-06-04T10:29:49.622Z,51.48
2018-06-04T10:30:49.583Z,51.99
2018-06-04T10:31:49.589Z,51.21
2018-06-04T10:32:49.573Z,51.19
2018-06-04T10:33:49.339Z,50.9
2018-06-04T10:34:49.586Z,50.8
2018-06-04T10:35:49.353Z,51.51
2018-06-04T10:36:49.602Z,51.97
2018-06-04T10:37:49.630Z,51.7
2018-06-04T10:38:49.615Z,51.31
2018-06-04T10:39:49.657Z,51.21
2018-06-04T10:40:49.641Z,51.24
2018-06-04T10:41:49.647Z,50.36
2018-06-04T10:42:49.684Z,50.19
2018-06-04T10:43:49.636Z,49.9
2018-06-04T10:44:49.642Z,49.8
2018-06-04T10:45:49.696Z,48.34
2018-06-04T10:46:49.704Z,48.34
2018-06-04T10:47:49.682Z,48.14
2018-06-04T10:48:49.665Z,47.88
2018-06-04T10:49:49.691Z,47.49
2018-06-04T10:50:49.673Z,47.58
2018-06-04T10:51:49.731Z,47.22
2018-06-04T10:52:49.694Z,47.22
2018-06-04T10:53:49.712Z,46.24
2018-06-04T10:54:49.704Z,45.97
2018-06-04T10:55:49.734Z,46.17
2018-06-04T10:56:49.717Z,45.7
2018-06-04T10:57:49.742Z,45.31
2018-06-04T10:58:49.467Z,45.41
2018-06-04T10:59:49.745Z,45.41
2018-06-04T11:00:49.751Z,44.63
2018-06-04T11:01:49.769Z,45.12
2018-06-04T11:02:49.753Z,45.61
2018-06-04T11:03:49.746Z,45.51
2018-06-04T11:04:49.566Z,45.31
2018-06-04T11:05:49.777Z,44.73
2018-06-04T11:06:49.770Z,44.63
2018-06-04T11:07:49.792Z,44.94
2018-06-04T11:08:51.193Z,45.04
2018-06-04T11:09:49.816Z,45.04
2018-06-04T11:10:49.537Z,44.09
2018-06-04T11:11:49.817Z,43.89
2018-06-04T11:12:49.802Z,43.3
2018-06-04T11:13:49.830Z,43.3
2018-06-04T11:14:49.834Z,43.4
2018-06-04T11:15:49.857Z,43.79
2018-06-04T11:16:49.592Z,43.99
2018-06-04T11:17:49.841Z,43.99
2018-06-04T11:18:49.942Z,44.48
2018-06-04T11:19:49.610Z,44.67
2018-06-04T11:20:49.857Z,45.33
2018-06-04T11:21:49.878Z,45.72
2018-06-04T11:22:49.873Z,45.04
2018-06-04T11:23:49.896Z,44.55
2018-06-04T11:24:49.888Z,45.04
2018-06-04T11:25:50.212Z,45.23
2018-06-04T11:26:49.905Z,45.51
2018-06-04T11:27:49.925Z,45.9
2018-06-04T11:28:49.906Z,45.92
2018-06-04T11:29:50.138Z,43.67
2018-06-04T11:30:49.918Z,44.74
2018-06-04T11:31:49.957Z,45.51
2018-06-04T11:32:49.682Z,45.21
2018-06-04T11:33:49.967Z,44.63
2018-06-04T11:34:49.961Z,44.34
2018-06-04T11:35:49.971Z,44.43
2018-06-04T11:36:49.961Z,43.96
2018-06-04T11:37:49.725Z,43.55
2018-06-04T11:38:49.985Z,43.67
2018-06-04T11:39:49.995Z,43.75
2018-06-04T11:40:50.014Z,44.04
2018-06-04T11:41:50.012Z,44.43
2018-06-04T11:42:50.032Z,44.7
2018-06-04T11:43:50.066Z,44.9
2018-06-04T11:44:50.008Z,45.09
2018-06-04T11:45:50.032Z,45.19
2018-06-04T11:46:50.021Z,45.58
2018-06-04T11:47:50.053Z,45.48
2018-06-04T11:48:50.051Z,45.58
2018-06-04T11:49:50.047Z,45.29
2018-06-04T11:50:50.046Z,45.48
2018-06-04T11:51:50.054Z,44.97
2018-06-04T11:52:50.079Z,44.97
2018-06-04T11:53:50.082Z,45.26
2018-06-04T11:54:50.089Z,45.07
2018-06-04T11:55:50.078Z,45.07
2018-06-04T11:56:50.255Z,45.15
2018-06-04T11:57:50.091Z,45.85
2018-06-04T11:58:50.152Z,45.95
2018-06-04T11:59:50.116Z,46.24
2018-06-04T12:00:50.119Z,46.44
2018-06-04T12:01:50.117Z,46.92
2018-06-04T12:02:49.866Z,47.02
2018-06-04T12:03:50.149Z,47.31
2018-06-04T12:04:50.167Z,46.73
2018-06-04T12:05:50.160Z,46.73
2018-06-04T12:06:50.140Z,46.92
2018-06-04T12:07:50.156Z,46.7
2018-06-04T12:08:50.178Z,47.39
2018-06-04T12:09:50.183Z,47.75
2018-06-04T12:10:50.183Z,48.44
2018-06-04T12:11:49.934Z,48.54
2018-06-04T12:12:50.190Z,48.14
2018-06-04T12:13:50.180Z,46.9
2018-06-04T12:14:50.213Z,47.19
2018-06-04T12:15:49.943Z,46.61
2018-06-04T12:16:49.965Z,46.34
2018-06-04T12:17:50.231Z,46.14
2018-06-04T12:18:50.226Z,46.24
2018-06-04T12:19:50.217Z,46.24
2018-06-04T12:20:49.969Z,44.97
2018-06-04T12:21:50.248Z,44.29
2018-06-04T12:22:50.279Z,44.02
2018-06-04T12:23:50.243Z,43.92
2018-06-04T12:24:50.267Z,44.12
2018-06-04T12:25:50.285Z,44.51
2018-06-04T12:26:50.485Z,44.41
2018-06-04T12:27:50.267Z,44.12
2018-06-04T12:28:50.287Z,44.34
2018-06-04T12:29:50.271Z,44.6
2018-06-04T12:30:50.053Z,45.02
2018-06-04T12:31:50.297Z,45.7
2018-06-04T12:32:50.308Z,45.7
2018-06-04T12:33:50.311Z,46
2018-06-04T12:34:50.332Z,46.39
2018-06-04T12:35:50.337Z,46.75
2018-06-04T12:36:50.312Z,46.36
2018-06-04T12:37:50.338Z,46.63
2018-06-04T12:38:50.351Z,47.02
2018-06-04T12:39:50.362Z,47.97
2018-06-04T12:40:50.344Z,47.66
2018-06-04T12:41:50.398Z,48.85
2018-06-04T12:42:50.355Z,48.34
2018-06-04T12:43:50.373Z,48.54
2018-06-04T12:44:50.359Z,49.51
2018-06-04T12:45:50.385Z,49.9
2018-06-04T12:46:50.371Z,49.02
2018-06-04T12:47:50.459Z,49.61
2018-06-04T12:48:50.419Z,49.51
2018-06-04T12:49:50.148Z,48.9
2018-06-04T12:50:50.428Z,48.51
2018-06-04T12:51:50.408Z,48.71
2018-06-04T12:52:50.409Z,47.92
2018-06-04T12:53:50.437Z,48.22
2018-06-04T12:54:50.182Z,47.92
2018-06-04T12:55:50.203Z,47.92
2018-06-04T12:56:50.442Z,48.29
2018-06-04T12:57:50.474Z,48.97
2018-06-04T12:58:50.492Z,49.46
2018-06-04T12:59:50.479Z,49.85